EZY84DG LEIB-EGCC
Flight info
| Callsign | EZY84DG |
|---|---|
| Flight time | 2h 18m |
| Altitude | 38000 |
| Route | EPAMA N856 EBROX DCT UMURE N863 GIROM DCT AGN DCT SECHE DCT UVELI DCT CNA DCT TUPAR UY120 AKIKI UN867 AVANT UM184 HEMEL T420 ELVOS |
| Aircraft | A320/M-SDE2E3FGHIJ1RWXYZ/LB1 |
Departure
| Time | 2026-05-04 14:38 |
|---|---|
| Airport | Ibiza Airport (LEIB) |
Arrival
| Time | 2026-05-04 16:56 |
|---|---|
| Airport | Manchester Airport (EGCC) |
| Time | Latitude | Longitude | Altitude | Speed | Heading |
|---|---|---|---|---|---|
| 2026-05-04 13:41 | 38.87437 | 1.36585 | 8 ft | 0 kts | 14° |
| 2026-05-04 14:31 | 38.87405 | 1.36629 | 8 ft | 10 kts | 153° |
| 2026-05-04 14:32 | 38.87442 | 1.36811 | 9 ft | 15 kts | 62° |
| 2026-05-04 14:32 | 38.87493 | 1.36936 | 8 ft | 15 kts | 61° |
| 2026-05-04 14:32 | 38.87541 | 1.37051 | 9 ft | 14 kts | 62° |
| 2026-05-04 14:32 | 38.87583 | 1.37154 | 8 ft | 12 kts | 62° |
| 2026-05-04 14:33 | 38.87621 | 1.37245 | 8 ft | 11 kts | 62° |
| 2026-05-04 14:33 | 38.87654 | 1.37323 | 9 ft | 9 kts | 60° |
| 2026-05-04 14:33 | 38.87686 | 1.37402 | 8 ft | 16 kts | 63° |
| 2026-05-04 14:33 | 38.87653 | 1.37508 | 8 ft | 14 kts | 152° |
| 2026-05-04 14:34 | 38.87584 | 1.37583 | 9 ft | 9 kts | 85° |
| 2026-05-04 14:34 | 38.87610 | 1.37647 | 9 ft | 11 kts | 64° |
| 2026-05-04 14:34 | 38.87655 | 1.37758 | 9 ft | 14 kts | 62° |
| 2026-05-04 14:34 | 38.87703 | 1.37870 | 9 ft | 16 kts | 61° |
| 2026-05-04 14:35 | 38.87764 | 1.38018 | 9 ft | 21 kts | 62° |
| 2026-05-04 14:35 | 38.87829 | 1.38175 | 9 ft | 19 kts | 62° |
| 2026-05-04 14:35 | 38.87888 | 1.38318 | 9 ft | 17 kts | 62° |
| 2026-05-04 14:35 | 38.87942 | 1.38447 | 9 ft | 16 kts | 62° |
| 2026-05-04 14:36 | 38.87990 | 1.38563 | 9 ft | 14 kts | 62° |
| 2026-05-04 14:36 | 38.87973 | 1.38653 | 9 ft | 11 kts | 151° |
| 2026-05-04 14:36 | 38.87912 | 1.38692 | 11 ft | 9 kts | 153° |
| 2026-05-04 14:36 | 38.87859 | 1.38702 | 14 ft | 7 kts | 236° |
| 2026-05-04 14:37 | 38.87828 | 1.38624 | 11 ft | 21 kts | 242° |
| 2026-05-04 14:37 | 38.87641 | 1.38175 | 14 ft | 90 kts | 242° |
| 2026-05-04 14:37 | 38.87252 | 1.37237 | 12 ft | 145 kts | 242° |
| 2026-05-04 14:37 | 38.86758 | 1.36007 | 451 ft | 156 kts | 239° |
| 2026-05-04 14:38 | 38.86277 | 1.34764 | 1174 ft | 158 kts | 240° |
| 2026-05-04 14:38 | 38.85755 | 1.33420 | 1514 ft | 179 kts | 240° |
| 2026-05-04 14:38 | 38.85171 | 1.31925 | 1940 ft | 194 kts | 242° |
| 2026-05-04 14:38 | 38.84562 | 1.30361 | 2705 ft | 195 kts | 243° |
| 2026-05-04 14:39 | 38.83953 | 1.28802 | 3488 ft | 196 kts | 243° |
| 2026-05-04 14:39 | 38.83361 | 1.27224 | 4221 ft | 198 kts | 250° |
| 2026-05-04 14:39 | 38.83280 | 1.25453 | 4904 ft | 206 kts | 281° |
| 2026-05-04 14:40 | 38.85420 | 1.22506 | 5908 ft | 248 kts | 319° |
| 2026-05-04 14:40 | 38.86839 | 1.21216 | 6627 ft | 252 kts | 319° |
| 2026-05-04 14:40 | 38.88278 | 1.19903 | 7349 ft | 255 kts | 319° |
| 2026-05-04 14:40 | 38.89727 | 1.18569 | 8092 ft | 258 kts | 319° |
| 2026-05-04 14:41 | 38.91209 | 1.17243 | 8839 ft | 263 kts | 325° |
| 2026-05-04 14:41 | 38.92947 | 1.16374 | 9570 ft | 275 kts | 344° |
| 2026-05-04 14:41 | 38.97045 | 1.16895 | 10250 ft | 324 kts | 11° |
| 2026-05-04 14:42 | 39.01681 | 1.18462 | 10920 ft | 357 kts | 11° |
| 2026-05-04 14:42 | 39.04096 | 1.19279 | 11579 ft | 361 kts | 11° |
| 2026-05-04 14:42 | 39.06537 | 1.20102 | 12262 ft | 364 kts | 11° |
| 2026-05-04 14:43 | 39.09001 | 1.20929 | 12954 ft | 368 kts | 11° |
| 2026-05-04 14:43 | 39.11495 | 1.21759 | 13653 ft | 372 kts | 10° |
| 2026-05-04 14:43 | 39.14011 | 1.22591 | 14259 ft | 375 kts | 10° |
| 2026-05-04 14:43 | 39.16520 | 1.23416 | 14818 ft | 379 kts | 10° |
| 2026-05-04 14:44 | 39.19121 | 1.24274 | 15392 ft | 383 kts | 10° |
| 2026-05-04 14:44 | 39.21682 | 1.25118 | 15938 ft | 387 kts | 9° |
| 2026-05-04 14:44 | 39.24307 | 1.25981 | 16496 ft | 391 kts | 9° |
| 2026-05-04 14:44 | 39.26952 | 1.26856 | 17071 ft | 395 kts | 9° |
| 2026-05-04 14:45 | 39.29662 | 1.27759 | 17625 ft | 399 kts | 9° |
| 2026-05-04 14:45 | 39.32320 | 1.28647 | 18159 ft | 402 kts | 9° |
| 2026-05-04 14:45 | 39.35041 | 1.29558 | 18652 ft | 406 kts | 9° |
| 2026-05-04 14:45 | 39.37792 | 1.30477 | 19121 ft | 410 kts | 9° |
| 2026-05-04 14:46 | 39.40565 | 1.31403 | 19579 ft | 414 kts | 9° |
| 2026-05-04 14:46 | 39.43365 | 1.32338 | 20039 ft | 418 kts | 9° |
| 2026-05-04 14:46 | 39.46196 | 1.33285 | 20497 ft | 422 kts | 9° |
| 2026-05-04 14:46 | 39.49050 | 1.34240 | 20941 ft | 426 kts | 9° |
| 2026-05-04 14:47 | 39.51932 | 1.35205 | 21396 ft | 430 kts | 9° |
| 2026-05-04 14:47 | 39.54843 | 1.36183 | 21851 ft | 434 kts | 9° |
| 2026-05-04 14:47 | 39.57779 | 1.37149 | 22319 ft | 436 kts | 6° |
| 2026-05-04 14:47 | 39.60770 | 1.37680 | 22753 ft | 433 kts | 356° |
| 2026-05-04 14:48 | 39.63762 | 1.37591 | 23179 ft | 429 kts | 347° |
| 2026-05-04 14:48 | 39.66740 | 1.37177 | 23579 ft | 432 kts | 346° |
| 2026-05-04 14:48 | 39.69738 | 1.36764 | 23940 ft | 435 kts | 347° |
| 2026-05-04 14:48 | 39.72757 | 1.36359 | 24304 ft | 438 kts | 347° |
| 2026-05-04 14:49 | 39.75795 | 1.35958 | 24660 ft | 440 kts | 347° |
| 2026-05-04 14:49 | 39.78856 | 1.35558 | 25011 ft | 443 kts | 347° |
| 2026-05-04 14:49 | 39.81930 | 1.35156 | 25378 ft | 445 kts | 347° |
| 2026-05-04 14:49 | 39.85020 | 1.34751 | 25710 ft | 448 kts | 347° |
| 2026-05-04 14:50 | 39.88132 | 1.34340 | 26037 ft | 450 kts | 347° |
| 2026-05-04 14:50 | 39.91257 | 1.33927 | 26358 ft | 453 kts | 347° |
| 2026-05-04 14:50 | 39.94398 | 1.33508 | 26676 ft | 455 kts | 347° |
| 2026-05-04 14:50 | 39.97554 | 1.33085 | 26992 ft | 457 kts | 347° |
| 2026-05-04 14:51 | 40.00733 | 1.32657 | 27304 ft | 460 kts | 347° |
| 2026-05-04 14:51 | 40.03922 | 1.32227 | 27628 ft | 462 kts | 347° |
| 2026-05-04 14:51 | 40.07127 | 1.31794 | 27925 ft | 465 kts | 347° |
| 2026-05-04 14:51 | 40.10357 | 1.31360 | 28218 ft | 467 kts | 347° |
| 2026-05-04 14:52 | 40.13597 | 1.30927 | 28503 ft | 469 kts | 347° |
| 2026-05-04 14:52 | 40.16852 | 1.30491 | 28786 ft | 472 kts | 347° |
| 2026-05-04 14:52 | 40.20129 | 1.30052 | 29061 ft | 474 kts | 347° |
| 2026-05-04 14:52 | 40.23414 | 1.29609 | 29330 ft | 476 kts | 347° |
| 2026-05-04 14:53 | 40.26716 | 1.29163 | 29631 ft | 478 kts | 347° |
| 2026-05-04 14:53 | 40.30034 | 1.28713 | 29887 ft | 481 kts | 347° |
| 2026-05-04 14:53 | 40.33371 | 1.28257 | 30108 ft | 483 kts | 347° |
| 2026-05-04 14:53 | 40.36715 | 1.27802 | 30318 ft | 484 kts | 347° |
| 2026-05-04 14:54 | 40.40073 | 1.27349 | 30530 ft | 486 kts | 347° |
| 2026-05-04 14:54 | 40.43444 | 1.26896 | 30752 ft | 487 kts | 347° |
| 2026-05-04 14:54 | 40.46809 | 1.26445 | 31049 ft | 486 kts | 347° |
| 2026-05-04 14:54 | 40.50168 | 1.25994 | 31373 ft | 485 kts | 347° |
| 2026-05-04 14:55 | 40.53519 | 1.25539 | 31673 ft | 484 kts | 347° |
| 2026-05-04 14:55 | 40.56869 | 1.25084 | 31961 ft | 483 kts | 347° |
| 2026-05-04 14:55 | 40.60210 | 1.24629 | 32247 ft | 483 kts | 347° |
| 2026-05-04 14:55 | 40.63549 | 1.24175 | 32524 ft | 482 kts | 347° |
| 2026-05-04 14:56 | 40.66888 | 1.23720 | 32807 ft | 482 kts | 347° |
| 2026-05-04 14:56 | 40.70176 | 1.23271 | 33091 ft | 481 kts | 347° |
| 2026-05-04 14:56 | 40.73504 | 1.22819 | 33372 ft | 481 kts | 347° |
| 2026-05-04 14:56 | 40.76830 | 1.22368 | 33649 ft | 481 kts | 347° |
| 2026-05-04 14:57 | 40.80153 | 1.21916 | 33922 ft | 480 kts | 347° |
| 2026-05-04 14:57 | 40.83476 | 1.21459 | 34174 ft | 479 kts | 347° |
| 2026-05-04 14:57 | 40.86789 | 1.20999 | 34415 ft | 479 kts | 347° |
| 2026-05-04 14:57 | 40.90098 | 1.20538 | 34652 ft | 478 kts | 347° |
| 2026-05-04 14:58 | 40.93408 | 1.20077 | 34888 ft | 478 kts | 347° |
| 2026-05-04 14:58 | 40.96711 | 1.19621 | 35096 ft | 477 kts | 347° |
| 2026-05-04 14:58 | 41.00013 | 1.19169 | 35300 ft | 477 kts | 347° |
| 2026-05-04 14:58 | 41.03312 | 1.18720 | 35506 ft | 477 kts | 347° |
| 2026-05-04 14:59 | 41.06612 | 1.18267 | 35706 ft | 476 kts | 347° |
| 2026-05-04 14:59 | 41.09903 | 1.17815 | 35906 ft | 475 kts | 347° |
| 2026-05-04 14:59 | 41.16478 | 1.16910 | 36280 ft | 475 kts | 347° |
| 2026-05-04 15:00 | 41.19771 | 1.16517 | 36448 ft | 475 kts | 348° |
| 2026-05-04 15:00 | 41.23068 | 1.16177 | 36619 ft | 476 kts | 349° |
| 2026-05-04 15:00 | 41.26371 | 1.15862 | 36782 ft | 475 kts | 349° |
| 2026-05-04 15:01 | 41.32956 | 1.15238 | 37096 ft | 474 kts | 348° |
| 2026-05-04 15:01 | 41.36242 | 1.14907 | 37251 ft | 474 kts | 348° |
| 2026-05-04 15:01 | 41.39536 | 1.14560 | 37428 ft | 474 kts | 348° |
| 2026-05-04 15:01 | 41.42819 | 1.14209 | 37585 ft | 473 kts | 349° |
| 2026-05-04 15:02 | 41.46097 | 1.13856 | 37731 ft | 473 kts | 349° |
| 2026-05-04 15:02 | 41.49375 | 1.13502 | 37878 ft | 472 kts | 349° |
| 2026-05-04 15:02 | 41.55904 | 1.12803 | 37921 ft | 470 kts | 349° |
| 2026-05-04 15:03 | 41.62419 | 1.12117 | 37899 ft | 469 kts | 349° |
| 2026-05-04 15:03 | 41.68877 | 1.11446 | 37908 ft | 469 kts | 349° |
| 2026-05-04 15:04 | 41.75378 | 1.10758 | 37919 ft | 468 kts | 349° |
| 2026-05-04 15:04 | 41.81872 | 1.10058 | 37948 ft | 468 kts | 349° |
| 2026-05-04 15:05 | 41.88373 | 1.09361 | 37950 ft | 469 kts | 349° |
| 2026-05-04 15:05 | 41.94872 | 1.08674 | 37953 ft | 469 kts | 349° |
| 2026-05-04 15:06 | 42.01380 | 1.07983 | 37958 ft | 469 kts | 349° |
| 2026-05-04 15:07 | 42.11152 | 1.06929 | 37936 ft | 470 kts | 349° |
| 2026-05-04 15:07 | 42.17674 | 1.06224 | 37930 ft | 471 kts | 349° |
| 2026-05-04 15:08 | 42.24205 | 1.05519 | 37938 ft | 470 kts | 349° |
| 2026-05-04 15:08 | 42.30739 | 1.04824 | 37937 ft | 471 kts | 349° |
| 2026-05-04 15:09 | 42.37282 | 1.04121 | 37937 ft | 472 kts | 349° |
| 2026-05-04 15:09 | 42.43826 | 1.03416 | 37947 ft | 472 kts | 350° |
| 2026-05-04 15:10 | 42.53655 | 1.02355 | 37934 ft | 471 kts | 350° |
| 2026-05-04 15:11 | 42.63441 | 1.01278 | 37949 ft | 471 kts | 349° |
| 2026-05-04 15:11 | 42.69987 | 1.00543 | 37945 ft | 472 kts | 350° |
| 2026-05-04 15:12 | 42.76534 | 0.99822 | 37944 ft | 472 kts | 350° |
| 2026-05-04 15:12 | 42.83083 | 0.99101 | 37944 ft | 473 kts | 350° |
| 2026-05-04 15:13 | 42.89637 | 0.98389 | 37944 ft | 472 kts | 350° |
| 2026-05-04 15:13 | 42.96183 | 0.97671 | 37947 ft | 472 kts | 351° |
| 2026-05-04 15:14 | 43.02740 | 0.96941 | 37963 ft | 472 kts | 351° |
| 2026-05-04 15:14 | 43.09254 | 0.96225 | 37951 ft | 473 kts | 351° |
| 2026-05-04 15:15 | 43.15819 | 0.95502 | 37950 ft | 474 kts | 351° |
| 2026-05-04 15:15 | 43.22386 | 0.94770 | 37952 ft | 474 kts | 351° |
| 2026-05-04 15:16 | 43.32261 | 0.93658 | 37957 ft | 475 kts | 351° |
| 2026-05-04 15:17 | 43.41031 | 0.92683 | 37956 ft | 475 kts | 351° |
| 2026-05-04 15:17 | 43.50927 | 0.91573 | 37963 ft | 474 kts | 351° |
| 2026-05-04 15:18 | 43.57498 | 0.90833 | 37965 ft | 474 kts | 351° |
| 2026-05-04 15:19 | 43.67357 | 0.89728 | 37962 ft | 474 kts | 351° |
| 2026-05-04 15:19 | 43.77198 | 0.88605 | 37963 ft | 473 kts | 351° |
| 2026-05-04 15:20 | 43.83760 | 0.87853 | 37974 ft | 473 kts | 351° |
| 2026-05-04 15:20 | 43.90164 | 0.86236 | 37965 ft | 462 kts | 335° |
| 2026-05-04 15:21 | 43.95981 | 0.82670 | 37939 ft | 456 kts | 329° |
| 2026-05-04 15:22 | 44.04618 | 0.77091 | 37946 ft | 457 kts | 329° |
| 2026-05-04 15:22 | 44.13280 | 0.71496 | 37922 ft | 458 kts | 330° |
| 2026-05-04 15:23 | 44.19023 | 0.67763 | 37915 ft | 459 kts | 330° |
| 2026-05-04 15:23 | 44.24817 | 0.63992 | 37924 ft | 460 kts | 330° |
| 2026-05-04 15:24 | 44.36403 | 0.56415 | 37929 ft | 460 kts | 330° |
| 2026-05-04 15:25 | 44.42199 | 0.52623 | 37940 ft | 460 kts | 330° |
| 2026-05-04 15:26 | 44.50894 | 0.46886 | 37933 ft | 460 kts | 330° |
| 2026-05-04 15:26 | 44.59578 | 0.41105 | 37929 ft | 461 kts | 330° |
| 2026-05-04 15:27 | 44.68268 | 0.35326 | 37948 ft | 461 kts | 330° |
| 2026-05-04 15:28 | 44.76926 | 0.29538 | 37939 ft | 461 kts | 330° |
| 2026-05-04 15:29 | 44.85621 | 0.23692 | 37939 ft | 462 kts | 330° |
| 2026-05-04 15:30 | 45.05975 | 0.09964 | 37950 ft | 463 kts | 330° |
| 2026-05-04 15:31 | 45.14650 | 0.04069 | 37948 ft | 463 kts | 330° |
| 2026-05-04 15:32 | 45.29170 | -0.05830 | 37965 ft | 463 kts | 330° |
| 2026-05-04 15:34 | 45.43655 | -0.15751 | 37963 ft | 462 kts | 331° |
| 2026-05-04 15:34 | 45.52329 | -0.21727 | 37961 ft | 461 kts | 330° |
| 2026-05-04 15:35 | 45.60993 | -0.27716 | 37974 ft | 461 kts | 331° |
| 2026-05-04 15:36 | 45.69910 | -0.32954 | 37961 ft | 465 kts | 340° |
| 2026-05-04 15:36 | 45.76086 | -0.35735 | 37954 ft | 465 kts | 340° |
| 2026-05-04 15:37 | 45.82264 | -0.38525 | 37954 ft | 466 kts | 340° |
| 2026-05-04 15:37 | 45.88456 | -0.41326 | 37958 ft | 467 kts | 340° |
| 2026-05-04 15:38 | 45.94651 | -0.44131 | 37954 ft | 467 kts | 340° |
| 2026-05-04 15:38 | 46.00847 | -0.46948 | 37961 ft | 467 kts | 340° |
| 2026-05-04 15:39 | 46.07051 | -0.49780 | 37952 ft | 468 kts | 340° |
| 2026-05-04 15:40 | 46.16357 | -0.54038 | 37957 ft | 468 kts | 339° |
| 2026-05-04 15:40 | 46.22567 | -0.56897 | 37959 ft | 468 kts | 339° |
| 2026-05-04 15:41 | 46.28776 | -0.59744 | 37961 ft | 468 kts | 340° |
| 2026-05-04 15:41 | 46.34993 | -0.62596 | 37966 ft | 468 kts | 339° |
| 2026-05-04 15:42 | 46.41197 | -0.65469 | 37966 ft | 468 kts | 339° |
| 2026-05-04 15:42 | 46.47083 | -0.69314 | 37973 ft | 463 kts | 330° |
| 2026-05-04 15:43 | 46.52839 | -0.73532 | 37972 ft | 463 kts | 330° |
| 2026-05-04 15:43 | 46.58604 | -0.77738 | 37979 ft | 463 kts | 330° |
| 2026-05-04 15:44 | 46.64351 | -0.81945 | 38004 ft | 462 kts | 330° |
| 2026-05-04 15:44 | 46.70095 | -0.86172 | 37993 ft | 462 kts | 330° |
| 2026-05-04 15:45 | 46.75829 | -0.90394 | 37984 ft | 462 kts | 330° |
| 2026-05-04 15:45 | 46.81562 | -0.94632 | 37985 ft | 462 kts | 330° |
| 2026-05-04 15:46 | 46.87251 | -0.98852 | 37981 ft | 462 kts | 330° |
| 2026-05-04 15:46 | 46.93062 | -1.02862 | 37976 ft | 464 kts | 340° |
| 2026-05-04 15:47 | 46.99401 | -1.04624 | 37981 ft | 466 kts | 353° |
| 2026-05-04 15:47 | 47.05867 | -1.05500 | 37973 ft | 467 kts | 353° |
| 2026-05-04 15:48 | 47.12330 | -1.06372 | 37975 ft | 467 kts | 353° |
| 2026-05-04 15:48 | 47.22037 | -1.07691 | 37973 ft | 467 kts | 353° |
| 2026-05-04 15:49 | 47.28508 | -1.08580 | 37972 ft | 467 kts | 353° |
| 2026-05-04 15:49 | 47.34985 | -1.09472 | 37973 ft | 467 kts | 353° |
| 2026-05-04 15:50 | 47.41458 | -1.10364 | 37976 ft | 467 kts | 353° |
| 2026-05-04 15:50 | 47.47927 | -1.11251 | 37975 ft | 467 kts | 353° |
| 2026-05-04 15:51 | 47.54395 | -1.12146 | 37972 ft | 467 kts | 353° |
| 2026-05-04 15:51 | 47.60860 | -1.13042 | 37973 ft | 467 kts | 353° |
| 2026-05-04 15:52 | 47.67324 | -1.13940 | 37977 ft | 466 kts | 353° |
| 2026-05-04 15:52 | 47.73737 | -1.14836 | 37974 ft | 466 kts | 353° |
| 2026-05-04 15:53 | 47.80233 | -1.15740 | 37976 ft | 466 kts | 353° |
| 2026-05-04 15:53 | 47.86677 | -1.16641 | 37974 ft | 465 kts | 353° |
| 2026-05-04 15:54 | 47.93078 | -1.17539 | 37973 ft | 465 kts | 353° |
| 2026-05-04 15:54 | 47.99521 | -1.18453 | 37971 ft | 465 kts | 353° |
| 2026-05-04 15:55 | 48.05959 | -1.19361 | 37965 ft | 465 kts | 353° |
| 2026-05-04 15:55 | 48.12405 | -1.20273 | 37959 ft | 465 kts | 353° |
| 2026-05-04 15:56 | 48.18855 | -1.21189 | 37959 ft | 465 kts | 353° |
| 2026-05-04 15:56 | 48.25300 | -1.22108 | 37969 ft | 465 kts | 353° |
| 2026-05-04 15:57 | 48.31742 | -1.23027 | 37973 ft | 465 kts | 353° |
| 2026-05-04 15:57 | 48.38184 | -1.23944 | 37973 ft | 465 kts | 353° |
| 2026-05-04 15:58 | 48.44625 | -1.24870 | 37977 ft | 465 kts | 353° |
| 2026-05-04 15:58 | 48.51058 | -1.25789 | 37984 ft | 464 kts | 353° |
| 2026-05-04 15:59 | 48.57488 | -1.26702 | 37987 ft | 464 kts | 353° |
| 2026-05-04 15:59 | 48.63911 | -1.27625 | 37985 ft | 463 kts | 353° |
| 2026-05-04 16:00 | 48.70323 | -1.28560 | 37994 ft | 462 kts | 353° |
| 2026-05-04 16:00 | 48.76726 | -1.29495 | 37999 ft | 462 kts | 353° |
| 2026-05-04 16:01 | 48.83118 | -1.30419 | 37999 ft | 461 kts | 353° |
| 2026-05-04 16:01 | 48.89501 | -1.31350 | 38003 ft | 461 kts | 353° |
| 2026-05-04 16:02 | 48.95885 | -1.32294 | 38002 ft | 461 kts | 353° |
| 2026-05-04 16:03 | 49.05464 | -1.33700 | 37993 ft | 461 kts | 353° |
| 2026-05-04 16:03 | 49.11845 | -1.34634 | 38001 ft | 461 kts | 353° |
| 2026-05-04 16:04 | 49.18227 | -1.35569 | 37995 ft | 461 kts | 353° |
| 2026-05-04 16:04 | 49.26721 | -1.36836 | 37996 ft | 460 kts | 353° |
| 2026-05-04 16:05 | 49.34130 | -1.37938 | 38002 ft | 460 kts | 353° |
| 2026-05-04 16:06 | 49.42655 | -1.39194 | 38005 ft | 460 kts | 353° |
| 2026-05-04 16:07 | 49.55391 | -1.41105 | 38008 ft | 460 kts | 353° |
| 2026-05-04 16:08 | 49.68167 | -1.40876 | 38006 ft | 460 kts | 2° |
| 2026-05-04 16:09 | 49.84093 | -1.39484 | 38014 ft | 459 kts | 2° |
| 2026-05-04 16:10 | 49.96856 | -1.38322 | 38004 ft | 459 kts | 3° |
| 2026-05-04 16:11 | 50.09497 | -1.35698 | 38007 ft | 458 kts | 9° |
| 2026-05-04 16:12 | 50.28378 | -1.30970 | 38008 ft | 458 kts | 9° |
| 2026-05-04 16:13 | 50.40959 | -1.27823 | 38011 ft | 458 kts | 9° |
| 2026-05-04 16:14 | 50.53145 | -1.22586 | 38011 ft | 456 kts | 31° |
| 2026-05-04 16:16 | 50.66571 | -1.09285 | 38005 ft | 456 kts | 33° |
| 2026-05-04 16:17 | 50.79977 | -0.95870 | 38019 ft | 456 kts | 32° |
| 2026-05-04 16:18 | 50.88793 | -0.90330 | 38011 ft | 456 kts | 18° |
| 2026-05-04 16:18 | 50.91770 | -0.88804 | 38010 ft | 456 kts | 18° |
| 2026-05-04 16:19 | 51.06849 | -0.80974 | 38017 ft | 457 kts | 18° |
| 2026-05-04 16:20 | 51.21955 | -0.73084 | 38018 ft | 457 kts | 18° |
| 2026-05-04 16:22 | 51.37031 | -0.65148 | 38040 ft | 456 kts | 18° |
| 2026-05-04 16:22 | 51.46077 | -0.60371 | 37325 ft | 456 kts | 18° |
| 2026-05-04 16:23 | 51.55125 | -0.55570 | 36540 ft | 457 kts | 18° |
| 2026-05-04 16:24 | 51.67142 | -0.49151 | 35526 ft | 451 kts | 18° |
| 2026-05-04 16:25 | 51.73070 | -0.45972 | 35069 ft | 447 kts | 17° |
| 2026-05-04 16:26 | 51.85082 | -0.46692 | 34110 ft | 432 kts | 335° |
| 2026-05-04 16:26 | 51.92817 | -0.53848 | 33287 ft | 424 kts | 327° |
| 2026-05-04 16:27 | 51.97842 | -0.58752 | 32741 ft | 420 kts | 327° |
| 2026-05-04 16:28 | 52.05302 | -0.66057 | 31954 ft | 415 kts | 327° |
| 2026-05-04 16:28 | 52.12618 | -0.73253 | 31191 ft | 408 kts | 326° |
| 2026-05-04 16:29 | 52.22156 | -0.82672 | 29443 ft | 394 kts | 326° |
| 2026-05-04 16:30 | 52.29066 | -0.89533 | 28210 ft | 381 kts | 326° |
| 2026-05-04 16:31 | 52.33548 | -0.93993 | 27394 ft | 373 kts | 326° |
| 2026-05-04 16:31 | 52.40106 | -1.00525 | 26195 ft | 363 kts | 327° |
| 2026-05-04 16:32 | 52.46508 | -1.06935 | 24939 ft | 356 kts | 327° |
| 2026-05-04 16:33 | 52.50716 | -1.11171 | 24061 ft | 353 kts | 327° |
| 2026-05-04 16:33 | 52.54896 | -1.15385 | 23136 ft | 351 kts | 327° |
| 2026-05-04 16:34 | 52.59032 | -1.19558 | 22277 ft | 346 kts | 327° |
| 2026-05-04 16:34 | 52.61079 | -1.21625 | 21857 ft | 344 kts | 327° |
| 2026-05-04 16:35 | 52.67161 | -1.27782 | 20609 ft | 340 kts | 327° |
| 2026-05-04 16:35 | 52.73193 | -1.33901 | 19348 ft | 339 kts | 327° |
| 2026-05-04 16:36 | 52.75210 | -1.35908 | 18963 ft | 339 kts | 332° |
| 2026-05-04 16:36 | 52.79798 | -1.36646 | 18134 ft | 340 kts | 18° |
| 2026-05-04 16:37 | 52.83334 | -1.31826 | 17309 ft | 335 kts | 64° |
| 2026-05-04 16:37 | 52.83982 | -1.28182 | 16915 ft | 331 kts | 86° |
| 2026-05-04 16:37 | 52.84084 | -1.20617 | 16143 ft | 328 kts | 91° |
| 2026-05-04 16:38 | 52.84195 | -1.13115 | 15380 ft | 326 kts | 78° |
| 2026-05-04 16:39 | 52.88721 | -1.05840 | 14286 ft | 318 kts | 6° |
| 2026-05-04 16:39 | 52.92728 | -1.07826 | 14052 ft | 305 kts | 315° |
| 2026-05-04 16:40 | 52.94798 | -1.13848 | 14056 ft | 303 kts | 291° |
| 2026-05-04 16:40 | 52.96381 | -1.20341 | 14056 ft | 304 kts | 291° |
| 2026-05-04 16:41 | 52.97952 | -1.26847 | 14058 ft | 304 kts | 291° |
| 2026-05-04 16:41 | 53.00121 | -1.36602 | 13319 ft | 299 kts | 286° |
| 2026-05-04 16:42 | 53.01843 | -1.46430 | 12267 ft | 293 kts | 285° |
| 2026-05-04 16:43 | 53.02953 | -1.52890 | 11561 ft | 289 kts | 285° |
| 2026-05-04 16:43 | 53.04064 | -1.59308 | 10821 ft | 288 kts | 286° |
| 2026-05-04 16:43 | 53.04619 | -1.62491 | 10466 ft | 286 kts | 286° |
| 2026-05-04 16:44 | 53.08731 | -1.73424 | 9022 ft | 279 kts | 310° |
| 2026-05-04 16:45 | 53.11695 | -1.77030 | 8626 ft | 262 kts | 342° |
| 2026-05-04 16:46 | 53.16760 | -1.79087 | 7851 ft | 246 kts | 345° |
| 2026-05-04 16:46 | 53.20072 | -1.80373 | 7319 ft | 242 kts | 345° |
| 2026-05-04 16:47 | 53.23348 | -1.81643 | 6828 ft | 241 kts | 345° |
| 2026-05-04 16:47 | 53.26596 | -1.82924 | 6335 ft | 239 kts | 346° |
| 2026-05-04 16:48 | 53.31419 | -1.84866 | 5557 ft | 236 kts | 345° |
| 2026-05-04 16:48 | 53.33011 | -1.85514 | 5301 ft | 235 kts | 346° |
| 2026-05-04 16:49 | 53.36168 | -1.86804 | 4998 ft | 233 kts | 345° |
| 2026-05-04 16:49 | 53.39321 | -1.88101 | 5006 ft | 233 kts | 345° |
| 2026-05-04 16:50 | 53.42473 | -1.89401 | 4521 ft | 231 kts | 345° |
| 2026-05-04 16:50 | 53.45544 | -1.90666 | 3999 ft | 224 kts | 345° |
| 2026-05-04 16:51 | 53.48527 | -1.91900 | 3549 ft | 218 kts | 342° |
| 2026-05-04 16:51 | 53.49779 | -1.93228 | 3497 ft | 215 kts | 305° |
| 2026-05-04 16:51 | 53.49633 | -1.97853 | 3509 ft | 217 kts | 233° |
| 2026-05-04 16:52 | 53.48045 | -2.01125 | 3501 ft | 218 kts | 231° |
| 2026-05-04 16:52 | 53.47091 | -2.03104 | 3502 ft | 218 kts | 232° |
| 2026-05-04 16:53 | 53.45193 | -2.07070 | 3144 ft | 218 kts | 232° |
| 2026-05-04 16:53 | 53.42362 | -2.12974 | 2276 ft | 215 kts | 232° |
| 2026-05-04 16:54 | 53.41425 | -2.14926 | 1987 ft | 215 kts | 232° |
| 2026-05-04 16:55 | 53.37975 | -2.22097 | 896 ft | 169 kts | 232° |
| 2026-05-04 16:55 | 53.36646 | -2.24865 | 449 ft | 141 kts | 232° |
| 2026-05-04 16:56 | 53.35513 | -2.27211 | 249 ft | 90 kts | 231° |
| 2026-05-04 16:56 | 53.35231 | -2.28166 | 231 ft | 7 kts | 273° |
| 2026-05-04 16:57 | 53.35251 | -2.28218 | 233 ft | 4 kts | 320° |
| 2026-05-04 16:57 | 53.35268 | -2.28226 | 232 ft | 0 kts | 356° |
| 2026-05-04 16:58 | 53.35336 | -2.28111 | 236 ft | 14 kts | 43° |
| 2026-05-04 16:58 | 53.35413 | -2.27994 | 237 ft | 19 kts | 41° |
| 2026-05-04 16:59 | 53.35668 | -2.27887 | 243 ft | 19 kts | 6° |
| 2026-05-04 17:00 | 53.36153 | -2.28144 | 255 ft | 22 kts | 315° |
| 2026-05-04 17:00 | 53.36471 | -2.28573 | 255 ft | 18 kts | 313° |
| 2026-05-04 17:01 | 53.36639 | -2.28766 | 255 ft | 9 kts | 59° |
| 2026-05-04 17:01 | 53.36589 | -2.28645 | 255 ft | 2 kts | 135° |